createdAt,value
2022-11-07T00:00:02.615Z,6.13
2022-11-07T00:02:28.959Z,5.22
2022-11-07T00:04:55.256Z,6.93
2022-11-07T00:07:21.595Z,5.20
2022-11-07T00:09:48.008Z,5.38
2022-11-07T00:12:14.432Z,4.82
2022-11-07T00:14:40.727Z,5.97
2022-11-07T00:17:08.289Z,4.45
2022-11-07T00:19:34.624Z,5.13
2022-11-07T00:22:00.999Z,9.02
2022-11-07T00:24:27.288Z,4.30
2022-11-07T00:26:53.851Z,4.97
2022-11-07T00:29:20.311Z,4.40
2022-11-07T00:31:46.987Z,4.00
2022-11-07T00:34:13.423Z,5.95
2022-11-07T00:36:39.730Z,4.78
2022-11-07T00:39:06.172Z,6.30
2022-11-07T00:43:59.232Z,7.30
2022-11-07T00:46:25.914Z,5.97
2022-11-07T00:48:52.228Z,5.07
2022-11-07T00:51:20.645Z,6.80
2022-11-07T00:53:46.976Z,7.15
2022-11-07T00:56:15.402Z,5.22
2022-11-07T00:58:42.732Z,7.75
2022-11-07T01:01:10.306Z,5.60
2022-11-07T01:03:55.572Z,3.97
2022-11-07T01:06:28.361Z,7.88
2022-11-07T01:08:56.493Z,4.15
2022-11-07T01:11:23.517Z,7.07
2022-11-07T01:16:16.300Z,4.25
2022-11-07T01:18:42.972Z,6.55
2022-11-07T01:21:15.153Z,8.15
2022-11-07T01:23:42.778Z,4.57
2022-11-07T01:26:10.181Z,4.70
2022-11-07T01:28:36.526Z,4.82
2022-11-07T01:31:03.850Z,7.80
2022-11-07T01:33:30.375Z,4.07
2022-11-07T01:36:05.748Z,6.72
2022-11-07T01:38:32.428Z,5.53
2022-11-07T01:41:17.555Z,7.13
2022-11-07T01:43:57.864Z,5.20
2022-11-07T01:46:31.068Z,5.60
2022-11-07T01:49:04.285Z,6.95
2022-11-07T01:51:32.246Z,9.70
2022-11-07T01:53:58.901Z,6.53
2022-11-07T01:56:27.061Z,6.38
2022-11-07T01:58:54.307Z,5.63
2022-11-07T02:01:20.972Z,6.80
2022-11-07T02:03:47.692Z,6.47
2022-11-07T02:06:17.326Z,6.18
2022-11-07T02:08:45.631Z,4.13
2022-11-07T02:11:13.267Z,6.88
2022-11-07T02:13:39.612Z,6.93
2022-11-07T02:16:06.200Z,8.02
2022-11-07T02:18:34.333Z,4.13
2022-11-07T02:21:03.549Z,4.18
2022-11-07T02:23:38.975Z,4.28
2022-11-07T02:26:05.658Z,7.40
2022-11-07T02:28:33.197Z,5.72
2022-11-07T02:30:59.711Z,6.78
2022-11-07T02:33:26.112Z,10.10
2022-11-07T02:35:52.994Z,7.22
2022-11-07T02:38:30.964Z,5.70
2022-11-07T02:41:00.241Z,4.47
2022-11-07T02:43:27.809Z,5.45
2022-11-07T02:45:55.116Z,5.50
2022-11-07T02:48:21.517Z,5.55
2022-11-07T02:50:47.832Z,7.45
2022-11-07T02:53:14.418Z,7.07
2022-11-07T02:55:41.097Z,4.15
2022-11-07T02:58:07.518Z,3.97
2022-11-07T03:00:33.881Z,4.35
2022-11-07T03:03:00.263Z,6.38
2022-11-07T03:05:26.603Z,6.78
2022-11-07T03:07:52.981Z,7.00
2022-11-07T03:10:19.310Z,5.72
2022-11-07T03:12:45.769Z,5.70
2022-11-07T03:15:13.107Z,8.50
2022-11-07T03:17:39.794Z,5.55
2022-11-07T03:20:06.529Z,7.22
2022-11-07T03:22:32.850Z,5.07
2022-11-07T03:24:59.180Z,5.22
2022-11-07T03:27:25.567Z,7.68
2022-11-07T03:29:51.847Z,6.53
2022-11-07T03:32:18.209Z,6.13
2022-11-07T03:34:44.521Z,6.70
2022-11-07T03:37:10.822Z,7.05
2022-11-07T03:39:37.155Z,7.80
2022-11-07T03:42:03.729Z,7.45
2022-11-07T03:44:30.316Z,8.43
2022-11-07T03:46:56.764Z,3.75
2022-11-07T03:49:23.161Z,3.28
2022-11-07T03:51:49.578Z,6.25
2022-11-07T03:54:16.091Z,4.68
2022-11-07T03:56:42.414Z,6.93
2022-11-07T03:59:08.819Z,4.60
2022-11-07T04:01:35.254Z,13.05
2022-11-07T04:04:01.714Z,5.75
2022-11-07T04:06:28.053Z,6.75
2022-11-07T04:08:54.549Z,6.93
2022-11-07T04:11:39.772Z,6.68
2022-11-07T04:14:24.835Z,3.17
2022-11-07T04:17:09.667Z,7.85
2022-11-07T04:19:35.999Z,6.47
2022-11-07T04:22:02.400Z,7.88
2022-11-07T04:24:28.741Z,6.78
2022-11-07T04:27:30.508Z,7.55
2022-11-07T04:29:56.825Z,10.50
2022-11-07T04:32:24.214Z,3.92
2022-11-07T04:34:53.475Z,9.38
2022-11-07T04:37:19.827Z,8.57
2022-11-07T04:39:46.273Z,5.03
2022-11-07T04:42:12.640Z,5.80
2022-11-07T04:44:39.129Z,7.72
2022-11-07T04:47:05.461Z,7.13
2022-11-07T04:49:31.797Z,8.48
2022-11-07T04:51:58.418Z,8.50
2022-11-07T04:54:24.741Z,8.07
2022-11-07T04:56:51.223Z,6.03
2022-11-07T04:59:17.665Z,5.30
2022-11-07T05:01:44.113Z,10.65
2022-11-07T05:04:10.843Z,7.93
2022-11-07T05:06:37.804Z,7.03
2022-11-07T05:11:30.362Z,10.98
2022-11-07T05:13:56.659Z,6.35
2022-11-07T05:16:23.184Z,8.02
2022-11-07T05:18:49.522Z,4.00
2022-11-07T05:21:16.026Z,8.90
2022-11-07T05:23:42.329Z,6.47
2022-11-07T05:26:09.427Z,7.28
2022-11-07T05:28:39.560Z,8.68
2022-11-07T05:31:07.003Z,12.65
2022-11-07T05:36:09.678Z,15.73
2022-11-07T05:38:36.462Z,12.63
2022-11-07T05:41:04.172Z,6.50
2022-11-07T05:45:23.464Z,6.88
2022-11-07T05:47:56.267Z,7.65
2022-11-07T05:50:22.507Z,8.55
2022-11-07T05:52:48.810Z,8.02
2022-11-07T05:55:15.328Z,9.90
2022-11-07T05:57:41.602Z,6.60
2022-11-07T06:00:08.218Z,10.82
2022-11-07T06:02:34.566Z,9.10
2022-11-07T06:05:00.903Z,6.72
2022-11-07T06:07:27.119Z,17.50
2022-11-07T06:09:53.534Z,11.07
2022-11-07T06:12:19.769Z,16.13
2022-11-07T06:14:46.044Z,15.60
2022-11-07T06:17:12.296Z,8.07
2022-11-07T06:19:38.597Z,8.13
2022-11-07T06:22:04.892Z,8.55
2022-11-07T06:24:31.148Z,9.07
2022-11-07T06:26:57.400Z,14.68
2022-11-07T06:29:23.639Z,12.15
2022-11-07T06:31:49.880Z,7.50
2022-11-07T06:34:16.152Z,12.63
2022-11-07T06:36:42.398Z,4.13
2022-11-07T06:39:08.605Z,10.43
2022-11-07T06:41:34.829Z,12.02
2022-11-07T06:44:01.109Z,6.38
2022-11-07T06:46:27.388Z,5.38
2022-11-07T06:48:54.367Z,6.95
2022-11-07T06:53:46.775Z,9.88
2022-11-07T06:56:14.269Z,9.88
2022-11-07T06:58:40.703Z,8.07
2022-11-07T07:01:13.479Z,7.13
2022-11-07T07:03:42.630Z,7.88
2022-11-07T07:06:15.957Z,7.07
2022-11-07T07:08:42.345Z,6.32
2022-11-07T07:11:09.669Z,6.57
2022-11-07T07:13:36.020Z,11.48
2022-11-07T07:16:02.368Z,13.57
2022-11-07T07:18:29.069Z,9.52
2022-11-07T07:21:01.515Z,6.10
2022-11-07T07:23:27.760Z,7.20
2022-11-07T07:25:54.122Z,8.73
2022-11-07T07:28:20.351Z,7.28
2022-11-07T07:30:51.672Z,8.98
2022-11-07T07:33:18.735Z,9.63
2022-11-07T07:35:45.478Z,8.75
2022-11-07T07:38:12.014Z,4.22
2022-11-07T07:40:38.453Z,4.65
2022-11-07T07:43:04.714Z,9.18
2022-11-07T07:45:30.951Z,8.80
2022-11-07T07:48:01.941Z,10.38
2022-11-07T07:50:28.192Z,6.88
2022-11-07T07:52:57.917Z,5.45
2022-11-07T07:55:24.329Z,8.93
2022-11-07T07:57:50.676Z,5.75
2022-11-07T08:00:17.141Z,6.72
2022-11-07T08:02:43.823Z,10.20
2022-11-07T08:05:11.121Z,16.17
2022-11-07T08:07:45.254Z,7.30
2022-11-07T08:10:39.482Z,7.43
2022-11-07T08:12:57.750Z,20.67
2022-11-07T08:15:23.993Z,14.57
2022-11-07T08:17:50.267Z,8.50
2022-11-07T08:20:19.496Z,11.43
2022-11-07T08:22:45.787Z,8.77
2022-11-07T08:25:12.066Z,9.02
2022-11-07T08:27:38.684Z,11.65
2022-11-07T08:30:07.100Z,6.85
2022-11-07T08:32:33.602Z,13.35
2022-11-07T08:34:59.835Z,11.30
2022-11-07T08:37:26.229Z,10.20
2022-11-07T08:39:52.512Z,7.38
2022-11-07T08:42:18.824Z,10.98
2022-11-07T08:44:45.173Z,7.75
2022-11-07T08:47:11.423Z,14.23
2022-11-07T08:49:37.632Z,6.50
2022-11-07T08:52:04.009Z,4.78
2022-11-07T08:54:30.277Z,4.32
2022-11-07T08:56:56.550Z,7.82
2022-11-07T08:59:23.056Z,7.82
2022-11-07T09:02:27.948Z,7.22
2022-11-07T09:04:35.585Z,9.07
2022-11-07T09:07:01.868Z,11.48
2022-11-07T09:09:28.534Z,10.05
2022-11-07T09:11:54.763Z,8.95
2022-11-07T09:14:21.069Z,8.80
2022-11-07T09:16:47.320Z,7.18
2022-11-07T09:19:13.744Z,10.60
2022-11-07T09:21:40.295Z,8.15
2022-11-07T09:24:07.914Z,7.70
2022-11-07T09:26:34.149Z,4.63
2022-11-07T09:29:01.468Z,12.35
2022-11-07T09:31:27.821Z,7.38
2022-11-07T09:33:54.165Z,8.30
2022-11-07T09:36:22.064Z,10.32
2022-11-07T09:38:48.324Z,12.43
2022-11-07T09:41:32.886Z,8.98
2022-11-07T09:44:05.221Z,8.57
2022-11-07T09:46:47.061Z,6.60
2022-11-07T09:49:16.063Z,12.93
2022-11-07T09:52:03.255Z,6.47
2022-11-07T09:54:31.303Z,9.60
2022-11-07T09:56:59.447Z,6.25
2022-11-07T09:59:33.291Z,11.18
2022-11-07T10:01:59.598Z,10.73
2022-11-07T10:04:26.931Z,4.18
2022-11-07T10:07:00.343Z,5.22
2022-11-07T10:09:45.160Z,10.38
2022-11-07T10:12:20.559Z,8.90
2022-11-07T10:14:52.778Z,5.82
2022-11-07T10:17:39.465Z,10.27
2022-11-07T10:20:21.890Z,8.15
2022-11-07T10:23:01.260Z,6.88
2022-11-07T10:25:45.611Z,11.05
2022-11-07T10:28:20.830Z,6.25
2022-11-07T10:30:54.343Z,8.93
2022-11-07T10:33:36.421Z,8.48
2022-11-07T10:36:11.412Z,5.95
2022-11-07T10:38:40.253Z,8.15
2022-11-07T10:41:13.477Z,9.25
2022-11-07T10:43:40.290Z,9.18
2022-11-07T10:46:13.660Z,13.55
2022-11-07T10:48:50.081Z,8.85
2022-11-07T10:51:16.318Z,9.43
2022-11-07T10:53:43.720Z,9.90
2022-11-07T10:56:10.947Z,8.25
2022-11-07T10:58:42.713Z,7.20
2022-11-07T11:01:10.045Z,6.65
2022-11-07T11:03:45.330Z,6.40
2022-11-07T11:06:18.192Z,8.68
2022-11-07T11:08:48.578Z,16.02
2022-11-07T11:11:20.846Z,8.13
2022-11-07T11:13:48.104Z,11.40
2022-11-07T11:16:15.325Z,10.73
2022-11-07T11:18:55.627Z,10.35
2022-11-07T11:21:22.765Z,7.05
2022-11-07T11:23:49.547Z,8.30
2022-11-07T11:26:21.827Z,9.07
2022-11-07T11:29:00.005Z,6.28
2022-11-07T11:31:41.521Z,10.48
2022-11-07T11:34:16.520Z,8.02
2022-11-07T11:36:47.159Z,7.07
2022-11-07T11:39:26.127Z,7.47
2022-11-07T11:41:56.579Z,13.30
2022-11-07T11:44:31.878Z,16.00
2022-11-07T11:47:10.529Z,8.82
2022-11-07T11:49:58.998Z,18.40
2022-11-07T11:52:25.927Z,10.95
2022-11-07T11:57:24.051Z,13.43
2022-11-07T11:59:58.678Z,8.13
2022-11-07T12:02:30.986Z,10.27
2022-11-07T12:05:15.850Z,7.85
2022-11-07T12:07:42.100Z,10.18
2022-11-07T12:10:13.124Z,12.10
2022-11-07T12:12:49.612Z,8.65
2022-11-07T12:15:30.940Z,9.15
2022-11-07T12:18:09.548Z,10.38
2022-11-07T12:20:45.407Z,5.97
2022-11-07T12:23:21.788Z,8.82
2022-11-07T12:25:58.285Z,8.07
2022-11-07T12:28:36.824Z,5.72
2022-11-07T12:31:12.387Z,7.10
2022-11-07T12:33:44.332Z,8.18
2022-11-07T12:36:13.361Z,7.43
2022-11-07T12:38:58.250Z,10.13
2022-11-07T12:41:43.303Z,11.05
2022-11-07T12:44:24.921Z,5.38
2022-11-07T12:46:52.754Z,6.25
2022-11-07T12:49:25.201Z,10.60
2022-11-07T12:52:10.792Z,14.20
2022-11-07T12:54:39.955Z,9.18
2022-11-07T12:57:17.794Z,9.02
2022-11-07T12:59:47.524Z,7.13
2022-11-07T13:02:43.431Z,7.20
2022-11-07T13:05:18.954Z,10.73
2022-11-07T13:07:50.147Z,7.45
2022-11-07T13:10:21.196Z,10.70
2022-11-07T13:13:04.872Z,12.38
2022-11-07T13:15:47.529Z,9.52
2022-11-07T13:18:24.876Z,5.90
2022-11-07T13:21:01.185Z,5.90
2022-11-07T13:23:30.621Z,11.50
2022-11-07T13:26:06.968Z,9.75
2022-11-07T13:28:41.369Z,8.65
2022-11-07T13:31:27.805Z,10.30
2022-11-07T13:33:54.040Z,7.25
2022-11-07T13:36:27.136Z,6.55
2022-11-07T13:38:56.381Z,13.50
2022-11-07T13:41:22.915Z,6.93
2022-11-07T13:43:50.762Z,6.43
2022-11-07T13:46:24.235Z,7.93
2022-11-07T13:48:54.905Z,6.15
2022-11-07T13:51:35.178Z,9.73
2022-11-07T13:54:05.060Z,9.32
2022-11-07T13:56:34.996Z,14.07
2022-11-07T13:59:03.091Z,7.53
2022-11-07T14:01:40.001Z,10.68
2022-11-07T14:04:14.809Z,11.70
2022-11-07T14:06:41.477Z,9.20
2022-11-07T14:09:07.818Z,12.80
2022-11-07T14:11:34.829Z,10.75
2022-11-07T14:16:30.572Z,11.32
2022-11-07T14:18:59.357Z,8.68
2022-11-07T14:21:30.415Z,9.32
2022-11-07T14:23:56.982Z,6.80
2022-11-07T14:26:32.624Z,8.55
2022-11-07T14:29:00.755Z,8.43
2022-11-07T14:31:29.402Z,14.07
2022-11-07T14:33:59.855Z,4.47
2022-11-07T14:36:26.966Z,9.82
2022-11-07T14:38:54.851Z,11.40
2022-11-07T14:41:22.490Z,4.35
2022-11-07T14:43:49.456Z,10.13
2022-11-07T14:48:43.357Z,11.98
2022-11-07T14:51:13.095Z,8.95
2022-11-07T14:53:48.785Z,10.65
2022-11-07T14:56:17.204Z,6.57
2022-11-07T14:58:43.753Z,10.25
2022-11-07T15:01:11.617Z,7.25
2022-11-07T15:03:49.632Z,15.90
2022-11-07T15:06:20.595Z,11.60
2022-11-07T15:08:55.645Z,17.35
2022-11-07T15:11:25.255Z,11.98
2022-11-07T15:13:52.234Z,16.00
2022-11-07T15:18:46.871Z,10.82
2022-11-07T15:21:29.769Z,9.48
2022-11-07T15:23:56.298Z,9.27
2022-11-07T15:26:24.388Z,11.10
2022-11-07T15:28:52.191Z,8.57
2022-11-07T15:31:23.917Z,10.23
2022-11-07T15:33:51.163Z,8.55
2022-11-07T15:36:17.657Z,17.95
2022-11-07T15:38:44.140Z,20.60
2022-11-07T15:41:11.763Z,10.05
2022-11-07T15:43:38.509Z,17.83
2022-11-07T15:46:08.568Z,17.65
2022-11-07T15:48:41.049Z,8.55
2022-11-07T15:51:08.487Z,7.13
2022-11-07T15:53:34.773Z,9.43
2022-11-07T15:56:01.696Z,9.68
2022-11-07T16:00:54.269Z,11.40
2022-11-07T16:03:21.733Z,7.80
2022-11-07T16:05:48.986Z,12.30
2022-11-07T16:08:19.696Z,8.18
2022-11-07T16:10:48.006Z,14.65
2022-11-07T16:13:14.571Z,14.60
2022-11-07T16:15:43.499Z,10.32
2022-11-07T16:18:14.649Z,11.05
2022-11-07T16:20:40.972Z,13.45
2022-11-07T16:23:08.746Z,12.93
2022-11-07T16:25:36.021Z,10.50
2022-11-07T16:28:03.334Z,11.93
2022-11-07T16:30:29.836Z,9.02
2022-11-07T16:32:56.211Z,12.20
2022-11-07T16:35:23.260Z,10.55
2022-11-07T16:40:18.637Z,13.23
2022-11-07T16:42:45.571Z,8.55
2022-11-07T16:47:39.415Z,10.43
2022-11-07T16:50:06.203Z,11.23
2022-11-07T16:52:32.481Z,16.50
2022-11-07T16:54:59.147Z,8.25
2022-11-07T16:57:25.597Z,5.97
2022-11-07T16:59:52.621Z,12.32
2022-11-07T17:04:47.792Z,10.85
2022-11-07T17:07:14.994Z,13.15
2022-11-07T17:09:44.560Z,11.15
2022-11-07T17:12:15.210Z,15.07
2022-11-07T17:14:41.476Z,16.88
2022-11-07T17:17:07.781Z,10.75
2022-11-07T17:19:34.488Z,18.00
2022-11-07T17:22:02.940Z,19.77
2022-11-07T17:24:30.679Z,17.23
2022-11-07T17:26:57.743Z,10.70
2022-11-07T17:29:24.182Z,13.10
2022-11-07T17:31:50.446Z,12.00
2022-11-07T17:34:16.744Z,15.77
2022-11-07T17:36:47.139Z,19.52
2022-11-07T17:39:16.047Z,16.00
2022-11-07T17:41:43.231Z,16.80
2022-11-07T17:44:09.826Z,13.95
2022-11-07T17:46:37.049Z,17.55
2022-11-07T17:49:04.671Z,17.63
2022-11-07T17:51:31.031Z,16.38
2022-11-07T17:53:57.717Z,15.07
2022-11-07T17:56:27.643Z,15.48
2022-11-07T17:58:57.182Z,14.73
2022-11-07T18:01:24.449Z,16.20
2022-11-07T18:03:51.192Z,13.27
2022-11-07T18:06:17.692Z,12.02
2022-11-07T18:08:52.299Z,17.25
2022-11-07T18:11:20.019Z,23.08
2022-11-07T18:16:15.432Z,28.55
2022-11-07T18:18:41.909Z,23.35
2022-11-07T18:21:08.535Z,21.85
2022-11-07T18:23:35.312Z,16.70
2022-11-07T18:26:05.694Z,21.60
2022-11-07T18:28:32.431Z,32.38
2022-11-07T18:31:05.557Z,34.58
2022-11-07T18:33:31.984Z,26.70
2022-11-07T18:35:59.451Z,24.80
2022-11-07T18:38:25.918Z,22.90
2022-11-07T18:40:57.355Z,19.85
2022-11-07T18:43:23.591Z,18.50
2022-11-07T18:45:49.816Z,19.40
2022-11-07T18:48:16.455Z,25.50
2022-11-07T18:50:43.032Z,22.85
2022-11-07T18:53:09.311Z,26.20
2022-11-07T18:55:35.592Z,16.52
2022-11-07T18:58:01.841Z,13.88
2022-11-07T19:00:28.241Z,13.27
2022-11-07T19:02:54.541Z,7.10
2022-11-07T19:05:21.898Z,13.65
2022-11-07T19:07:48.671Z,12.00
2022-11-07T19:10:16.454Z,8.85
2022-11-07T19:12:42.792Z,15.70
2022-11-07T19:15:09.713Z,9.85
2022-11-07T19:17:36.127Z,11.23
2022-11-07T19:20:02.526Z,12.32
2022-11-07T19:22:30.105Z,13.40
2022-11-07T19:24:56.402Z,21.48
2022-11-07T19:27:22.851Z,32.67
2022-11-07T19:29:49.155Z,32.60
2022-11-07T19:32:15.502Z,16.55
2022-11-07T19:34:41.746Z,22.13
2022-11-07T19:37:07.996Z,18.67
2022-11-07T19:39:36.912Z,15.95
2022-11-07T19:42:04.144Z,12.45
2022-11-07T19:44:30.954Z,9.25
2022-11-07T19:46:57.306Z,10.18
2022-11-07T19:49:23.522Z,14.10
2022-11-07T19:51:52.120Z,11.27
2022-11-07T19:54:18.667Z,9.38
2022-11-07T19:56:44.911Z,16.45
2022-11-07T19:59:11.164Z,8.90
2022-11-07T20:01:39.324Z,12.98
2022-11-07T20:04:05.804Z,11.35
2022-11-07T20:06:35.292Z,12.85
2022-11-07T20:09:01.838Z,12.63
2022-11-07T20:11:28.569Z,14.43
2022-11-07T20:13:58.683Z,17.73
2022-11-07T20:16:28.295Z,16.08
2022-11-07T20:18:54.560Z,15.48
2022-11-07T20:21:22.126Z,11.80
2022-11-07T20:23:49.541Z,15.05
2022-11-07T20:26:17.204Z,15.68
2022-11-07T20:28:43.760Z,12.02
2022-11-07T20:31:14.061Z,11.90
2022-11-07T20:33:40.424Z,13.98
2022-11-07T20:36:08.299Z,12.30
2022-11-07T20:38:35.001Z,17.90
2022-11-07T20:41:01.991Z,21.55
2022-11-07T20:45:54.399Z,13.85
2022-11-07T20:48:21.087Z,9.02
2022-11-07T20:50:49.043Z,15.55
2022-11-07T20:53:16.006Z,13.00
2022-11-07T20:55:43.078Z,10.35
2022-11-07T20:58:10.201Z,13.85
2022-11-07T21:00:37.776Z,18.13
2022-11-07T21:03:04.051Z,11.00
2022-11-07T21:05:30.667Z,15.95
2022-11-07T21:07:56.945Z,12.63
2022-11-07T21:10:23.401Z,19.92
2022-11-07T21:12:49.700Z,12.85
2022-11-07T21:15:16.067Z,19.65
2022-11-07T21:17:42.311Z,13.43
2022-11-07T21:20:10.188Z,14.93
2022-11-07T21:22:36.567Z,18.17
2022-11-07T21:25:04.124Z,11.77
2022-11-07T21:27:34.092Z,13.68
2022-11-07T21:30:00.358Z,10.73
2022-11-07T21:32:26.625Z,15.25
2022-11-07T21:34:52.876Z,13.55
2022-11-07T21:37:19.283Z,18.70
2022-11-07T21:39:45.563Z,11.00
2022-11-07T21:42:12.660Z,15.13
2022-11-07T21:44:38.945Z,16.20
2022-11-07T21:47:05.190Z,12.18
2022-11-07T21:49:31.462Z,10.55
2022-11-07T21:51:57.774Z,16.02
2022-11-07T21:54:24.718Z,16.17
2022-11-07T21:56:50.949Z,16.92
2022-11-07T21:59:19.441Z,14.25
2022-11-07T22:01:48.495Z,16.80
2022-11-07T22:04:15.810Z,17.30
2022-11-07T22:06:43.775Z,21.75
2022-11-07T22:09:11.076Z,15.07
2022-11-07T22:11:37.313Z,15.63
2022-11-07T22:14:03.819Z,15.88
2022-11-07T22:16:30.177Z,21.58
2022-11-07T22:18:57.903Z,15.48
2022-11-07T22:21:24.165Z,18.42
2022-11-07T22:23:50.820Z,16.17
2022-11-07T22:26:18.481Z,16.63
2022-11-07T22:28:46.371Z,14.50
2022-11-07T22:31:14.235Z,19.63
2022-11-07T22:33:40.473Z,12.02
2022-11-07T22:36:07.678Z,15.30
2022-11-07T22:38:34.531Z,10.80
2022-11-07T22:41:00.836Z,15.63
2022-11-07T22:43:29.293Z,14.00
2022-11-07T22:45:55.543Z,26.45
2022-11-07T22:48:21.774Z,26.20
2022-11-07T22:50:48.054Z,28.75
2022-11-07T22:53:14.501Z,20.77
2022-11-07T22:55:40.956Z,16.00
2022-11-07T22:58:07.230Z,12.77
2022-11-07T23:00:33.553Z,14.80
2022-11-07T23:02:59.901Z,14.65
2022-11-07T23:05:26.199Z,18.58
2022-11-07T23:07:53.607Z,17.13
2022-11-07T23:10:20.279Z,17.02
2022-11-07T23:12:46.636Z,14.95
2022-11-07T23:15:13.038Z,9.25
2022-11-07T23:17:40.167Z,16.48
2022-11-07T23:20:07.662Z,11.60
2022-11-07T23:22:33.956Z,13.02
2022-11-07T23:25:00.570Z,8.45
2022-11-07T23:27:26.826Z,12.73
2022-11-07T23:29:53.089Z,10.25
2022-11-07T23:32:19.418Z,8.75
2022-11-07T23:34:45.681Z,6.50
2022-11-07T23:37:15.121Z,12.55
2022-11-07T23:39:44.402Z,11.73
2022-11-07T23:42:11.004Z,9.98
2022-11-07T23:44:55.784Z,14.70
2022-11-07T23:47:40.545Z,8.80
2022-11-07T23:50:25.746Z,31.05
2022-11-07T23:52:52.136Z,31.08
2022-11-07T23:55:36.809Z,26.15
2022-11-07T23:58:21.660Z,38.95
